sensor_id;sensor_type;location;lat;lon;timestamp;temperature;humidity
37086;DHT22;23001;45.952;12.676;2023-11-19T00:00:36;6.20;99.90
37086;DHT22;23001;45.952;12.676;2023-11-19T00:03:01;6.10;99.90
37086;DHT22;23001;45.952;12.676;2023-11-19T00:05:27;6.00;99.90
37086;DHT22;23001;45.952;12.676;2023-11-19T00:07:55;6.00;99.90
37086;DHT22;23001;45.952;12.676;2023-11-19T00:10:21;5.90;99.90
37086;DHT22;23001;45.952;12.676;2023-11-19T00:12:47;5.90;99.90
37086;DHT22;23001;45.952;12.676;2023-11-19T00:15:13;6.00;99.90
37086;DHT22;23001;45.952;12.676;2023-11-19T00:17:39;6.10;99.90
37086;DHT22;23001;45.952;12.676;2023-11-19T00:20:06;6.20;99.90
37086;DHT22;23001;45.952;12.676;2023-11-19T00:22:31;6.10;99.90
37086;DHT22;23001;45.952;12.676;2023-11-19T00:24:58;6.10;99.90
37086;DHT22;23001;45.952;12.676;2023-11-19T00:27:24;6.10;99.90
37086;DHT22;23001;45.952;12.676;2023-11-19T00:29:50;6.00;99.90
37086;DHT22;23001;45.952;12.676;2023-11-19T00:32:16;6.00;99.90
37086;DHT22;23001;45.952;12.676;2023-11-19T00:34:43;6.00;99.90
37086;DHT22;23001;45.952;12.676;2023-11-19T00:37:09;6.00;99.90
37086;DHT22;23001;45.952;12.676;2023-11-19T00:39:35;6.00;99.90
37086;DHT22;23001;45.952;12.676;2023-11-19T00:42:00;6.00;99.90
37086;DHT22;23001;45.952;12.676;2023-11-19T00:44:26;6.00;99.90
37086;DHT22;23001;45.952;12.676;2023-11-19T00:46:51;5.90;99.90
37086;DHT22;23001;45.952;12.676;2023-11-19T00:49:17;5.90;99.90
37086;DHT22;23001;45.952;12.676;2023-11-19T00:51:42;5.90;99.90
37086;DHT22;23001;45.952;12.676;2023-11-19T00:54:08;5.90;99.90
37086;DHT22;23001;45.952;12.676;2023-11-19T00:56:34;5.90;99.90
37086;DHT22;23001;45.952;12.676;2023-11-19T00:58:59;5.90;99.90
37086;DHT22;23001;45.952;12.676;2023-11-19T01:01:25;5.80;99.90
37086;DHT22;23001;45.952;12.676;2023-11-19T01:03:51;5.80;99.90
37086;DHT22;23001;45.952;12.676;2023-11-19T01:06:26;5.80;99.90
37086;DHT22;23001;45.952;12.676;2023-11-19T01:08:52;5.80;99.90
37086;DHT22;23001;45.952;12.676;2023-11-19T01:11:21;5.80;99.90
37086;DHT22;23001;45.952;12.676;2023-11-19T01:13:47;5.70;99.90
37086;DHT22;23001;45.952;12.676;2023-11-19T01:16:13;5.60;99.90
37086;DHT22;23001;45.952;12.676;2023-11-19T01:18:38;5.60;99.90
37086;DHT22;23001;45.952;12.676;2023-11-19T01:21:04;5.50;99.90
37086;DHT22;23001;45.952;12.676;2023-11-19T01:23:30;5.60;99.90
37086;DHT22;23001;45.952;12.676;2023-11-19T01:25:55;5.70;99.90
37086;DHT22;23001;45.952;12.676;2023-11-19T01:28:21;5.60;99.90
37086;DHT22;23001;45.952;12.676;2023-11-19T01:30:46;5.60;99.90
37086;DHT22;23001;45.952;12.676;2023-11-19T01:33:12;5.60;99.90
37086;DHT22;23001;45.952;12.676;2023-11-19T01:35:38;5.70;99.90
37086;DHT22;23001;45.952;12.676;2023-11-19T01:38:03;5.60;99.90
37086;DHT22;23001;45.952;12.676;2023-11-19T01:40:29;5.60;99.90
37086;DHT22;23001;45.952;12.676;2023-11-19T01:42:54;5.60;99.90
37086;DHT22;23001;45.952;12.676;2023-11-19T01:45:30;5.60;99.90
37086;DHT22;23001;45.952;12.676;2023-11-19T01:47:59;5.50;99.90
37086;DHT22;23001;45.952;12.676;2023-11-19T01:50:25;5.40;99.90
37086;DHT22;23001;45.952;12.676;2023-11-19T01:52:54;5.40;99.90
37086;DHT22;23001;45.952;12.676;2023-11-19T01:55:20;5.40;99.90
37086;DHT22;23001;45.952;12.676;2023-11-19T01:57:47;5.20;99.90
37086;DHT22;23001;45.952;12.676;2023-11-19T02:00:13;5.50;99.90
37086;DHT22;23001;45.952;12.676;2023-11-19T02:02:39;5.50;99.90
37086;DHT22;23001;45.952;12.676;2023-11-19T02:05:05;5.50;99.90
37086;DHT22;23001;45.952;12.676;2023-11-19T02:07:31;5.40;99.90
37086;DHT22;23001;45.952;12.676;2023-11-19T02:09:57;5.40;99.90
37086;DHT22;23001;45.952;12.676;2023-11-19T02:12:25;5.40;99.90
37086;DHT22;23001;45.952;12.676;2023-11-19T02:14:53;5.40;99.90
37086;DHT22;23001;45.952;12.676;2023-11-19T02:17:28;5.40;99.90
37086;DHT22;23001;45.952;12.676;2023-11-19T02:19:54;5.30;99.90
37086;DHT22;23001;45.952;12.676;2023-11-19T02:22:19;5.30;99.90
37086;DHT22;23001;45.952;12.676;2023-11-19T02:24:45;5.30;99.90
37086;DHT22;23001;45.952;12.676;2023-11-19T02:27:16;5.40;99.90
37086;DHT22;23001;45.952;12.676;2023-11-19T02:29:43;5.40;99.90
37086;DHT22;23001;45.952;12.676;2023-11-19T02:32:08;5.40;99.90
37086;DHT22;23001;45.952;12.676;2023-11-19T02:34:34;5.40;99.90
37086;DHT22;23001;45.952;12.676;2023-11-19T02:37:00;5.40;99.90
37086;DHT22;23001;45.952;12.676;2023-11-19T02:39:25;5.40;99.90
37086;DHT22;23001;45.952;12.676;2023-11-19T02:41:51;5.30;99.90
37086;DHT22;23001;45.952;12.676;2023-11-19T02:44:18;5.30;99.90
37086;DHT22;23001;45.952;12.676;2023-11-19T02:46:44;5.30;99.90
37086;DHT22;23001;45.952;12.676;2023-11-19T02:49:09;5.30;99.90
37086;DHT22;23001;45.952;12.676;2023-11-19T02:51:37;5.30;99.90
37086;DHT22;23001;45.952;12.676;2023-11-19T02:54:02;5.50;99.90
37086;DHT22;23001;45.952;12.676;2023-11-19T02:56:29;5.50;99.90
37086;DHT22;23001;45.952;12.676;2023-11-19T02:59:00;5.50;99.90
37086;DHT22;23001;45.952;12.676;2023-11-19T03:01:32;5.60;99.90
37086;DHT22;23001;45.952;12.676;2023-11-19T03:04:00;5.60;99.90
37086;DHT22;23001;45.952;12.676;2023-11-19T03:06:26;5.50;99.90
37086;DHT22;23001;45.952;12.676;2023-11-19T03:08:52;5.50;99.90
37086;DHT22;23001;45.952;12.676;2023-11-19T03:11:18;5.40;99.90
37086;DHT22;23001;45.952;12.676;2023-11-19T03:13:44;5.40;99.90
37086;DHT22;23001;45.952;12.676;2023-11-19T03:16:09;5.50;99.90
37086;DHT22;23001;45.952;12.676;2023-11-19T03:18:37;5.50;99.90
37086;DHT22;23001;45.952;12.676;2023-11-19T03:21:04;5.60;99.90
37086;DHT22;23001;45.952;12.676;2023-11-19T03:23:30;5.60;99.90
37086;DHT22;23001;45.952;12.676;2023-11-19T03:25:56;5.70;99.90
37086;DHT22;23001;45.952;12.676;2023-11-19T03:28:22;5.70;99.90
37086;DHT22;23001;45.952;12.676;2023-11-19T03:30:47;5.70;99.90
37086;DHT22;23001;45.952;12.676;2023-11-19T03:33:13;5.60;99.90
37086;DHT22;23001;45.952;12.676;2023-11-19T03:35:38;5.80;99.90
37086;DHT22;23001;45.952;12.676;2023-11-19T03:38:06;5.80;99.90
37086;DHT22;23001;45.952;12.676;2023-11-19T03:40:32;5.80;99.90
37086;DHT22;23001;45.952;12.676;2023-11-19T03:42:57;5.80;99.90
37086;DHT22;23001;45.952;12.676;2023-11-19T03:45:26;5.80;99.90
37086;DHT22;23001;45.952;12.676;2023-11-19T03:47:51;5.80;99.90
37086;DHT22;23001;45.952;12.676;2023-11-19T03:50:17;5.80;99.90
37086;DHT22;23001;45.952;12.676;2023-11-19T03:52:45;5.70;99.90
37086;DHT22;23001;45.952;12.676;2023-11-19T03:55:11;5.70;99.90
37086;DHT22;23001;45.952;12.676;2023-11-19T03:57:38;5.70;99.90
37086;DHT22;23001;45.952;12.676;2023-11-19T04:00:04;5.60;99.90
37086;DHT22;23001;45.952;12.676;2023-11-19T04:02:36;5.60;99.90
37086;DHT22;23001;45.952;12.676;2023-11-19T04:05:02;5.50;99.90
37086;DHT22;23001;45.952;12.676;2023-11-19T04:07:28;5.40;99.90
37086;DHT22;23001;45.952;12.676;2023-11-19T04:09:54;5.40;99.90
37086;DHT22;23001;45.952;12.676;2023-11-19T04:12:20;5.30;99.90
37086;DHT22;23001;45.952;12.676;2023-11-19T04:14:45;5.30;99.90
37086;DHT22;23001;45.952;12.676;2023-11-19T04:17:11;5.40;99.90
37086;DHT22;23001;45.952;12.676;2023-11-19T04:19:36;5.40;99.90
37086;DHT22;23001;45.952;12.676;2023-11-19T04:22:02;5.30;99.90
37086;DHT22;23001;45.952;12.676;2023-11-19T04:24:27;5.20;99.90
37086;DHT22;23001;45.952;12.676;2023-11-19T04:26:53;5.30;99.90
37086;DHT22;23001;45.952;12.676;2023-11-19T04:29:19;5.30;99.90
37086;DHT22;23001;45.952;12.676;2023-11-19T04:31:45;5.20;99.90
37086;DHT22;23001;45.952;12.676;2023-11-19T04:34:11;5.20;99.90
37086;DHT22;23001;45.952;12.676;2023-11-19T04:36:36;5.20;99.90
37086;DHT22;23001;45.952;12.676;2023-11-19T04:39:03;5.20;99.90
37086;DHT22;23001;45.952;12.676;2023-11-19T04:41:34;5.30;99.90
37086;DHT22;23001;45.952;12.676;2023-11-19T04:43:59;5.30;99.90
37086;DHT22;23001;45.952;12.676;2023-11-19T04:46:25;5.30;99.90
37086;DHT22;23001;45.952;12.676;2023-11-19T04:48:50;5.20;99.90
37086;DHT22;23001;45.952;12.676;2023-11-19T04:51:16;5.20;99.90
37086;DHT22;23001;45.952;12.676;2023-11-19T04:53:42;5.20;99.90
37086;DHT22;23001;45.952;12.676;2023-11-19T04:56:08;5.20;99.90
37086;DHT22;23001;45.952;12.676;2023-11-19T04:58:34;5.20;99.90
37086;DHT22;23001;45.952;12.676;2023-11-19T05:01:01;5.10;99.90
37086;DHT22;23001;45.952;12.676;2023-11-19T05:03:27;5.10;99.90
37086;DHT22;23001;45.952;12.676;2023-11-19T05:05:52;5.10;99.90
37086;DHT22;23001;45.952;12.676;2023-11-19T05:08:18;5.00;99.90
37086;DHT22;23001;45.952;12.676;2023-11-19T05:10:44;5.00;99.90
37086;DHT22;23001;45.952;12.676;2023-11-19T05:13:10;5.00;99.90
37086;DHT22;23001;45.952;12.676;2023-11-19T05:15:35;5.00;99.90
37086;DHT22;23001;45.952;12.676;2023-11-19T05:18:01;5.00;99.90
37086;DHT22;23001;45.952;12.676;2023-11-19T05:20:26;5.00;99.90
37086;DHT22;23001;45.952;12.676;2023-11-19T05:22:52;5.00;99.90
37086;DHT22;23001;45.952;12.676;2023-11-19T05:25:18;5.00;99.90
37086;DHT22;23001;45.952;12.676;2023-11-19T05:27:45;5.00;99.90
37086;DHT22;23001;45.952;12.676;2023-11-19T05:30:11;5.00;99.90
37086;DHT22;23001;45.952;12.676;2023-11-19T05:32:37;5.00;99.90
37086;DHT22;23001;45.952;12.676;2023-11-19T05:35:02;5.00;99.90
37086;DHT22;23001;45.952;12.676;2023-11-19T05:37:28;4.90;99.90
37086;DHT22;23001;45.952;12.676;2023-11-19T05:39:54;4.90;99.90
37086;DHT22;23001;45.952;12.676;2023-11-19T05:42:20;5.00;99.90
37086;DHT22;23001;45.952;12.676;2023-11-19T05:44:45;5.00;99.90
37086;DHT22;23001;45.952;12.676;2023-11-19T05:47:11;4.90;99.90
37086;DHT22;23001;45.952;12.676;2023-11-19T05:49:37;4.80;99.90
37086;DHT22;23001;45.952;12.676;2023-11-19T05:52:03;4.90;99.90
37086;DHT22;23001;45.952;12.676;2023-11-19T05:54:29;4.80;99.90
37086;DHT22;23001;45.952;12.676;2023-11-19T05:56:54;4.80;99.90
37086;DHT22;23001;45.952;12.676;2023-11-19T05:59:20;4.80;99.90
37086;DHT22;23001;45.952;12.676;2023-11-19T06:01:48;4.80;99.90
37086;DHT22;23001;45.952;12.676;2023-11-19T06:04:14;4.80;99.90
37086;DHT22;23001;45.952;12.676;2023-11-19T06:06:39;4.80;99.90
37086;DHT22;23001;45.952;12.676;2023-11-19T06:09:05;4.80;99.90
37086;DHT22;23001;45.952;12.676;2023-11-19T06:11:32;4.80;99.90
37086;DHT22;23001;45.952;12.676;2023-11-19T06:13:58;4.80;99.90
37086;DHT22;23001;45.952;12.676;2023-11-19T06:16:24;4.80;99.90
37086;DHT22;23001;45.952;12.676;2023-11-19T06:18:49;4.80;99.90
37086;DHT22;23001;45.952;12.676;2023-11-19T06:21:15;4.80;99.90
37086;DHT22;23001;45.952;12.676;2023-11-19T06:23:41;4.90;99.90
37086;DHT22;23001;45.952;12.676;2023-11-19T06:26:07;4.80;99.90
37086;DHT22;23001;45.952;12.676;2023-11-19T06:28:34;4.70;99.90
37086;DHT22;23001;45.952;12.676;2023-11-19T06:30:59;4.70;99.90
37086;DHT22;23001;45.952;12.676;2023-11-19T06:33:26;4.80;99.90
37086;DHT22;23001;45.952;12.676;2023-11-19T06:35:52;4.80;99.90
37086;DHT22;23001;45.952;12.676;2023-11-19T06:38:18;4.80;99.90
37086;DHT22;23001;45.952;12.676;2023-11-19T06:40:44;4.80;99.90
37086;DHT22;23001;45.952;12.676;2023-11-19T06:43:09;4.90;99.90
37086;DHT22;23001;45.952;12.676;2023-11-19T06:45:35;4.90;99.90
37086;DHT22;23001;45.952;12.676;2023-11-19T06:48:02;5.00;99.90
37086;DHT22;23001;45.952;12.676;2023-11-19T06:50:30;5.00;99.90
37086;DHT22;23001;45.952;12.676;2023-11-19T06:52:55;5.10;99.90
37086;DHT22;23001;45.952;12.676;2023-11-19T06:55:21;4.90;99.90
37086;DHT22;23001;45.952;12.676;2023-11-19T06:57:47;5.00;99.90
37086;DHT22;23001;45.952;12.676;2023-11-19T07:00:13;5.00;99.90
37086;DHT22;23001;45.952;12.676;2023-11-19T07:02:38;5.10;99.90
37086;DHT22;23001;45.952;12.676;2023-11-19T07:05:04;5.20;99.90
37086;DHT22;23001;45.952;12.676;2023-11-19T07:07:33;5.30;99.90
37086;DHT22;23001;45.952;12.676;2023-11-19T07:09:59;5.30;99.90
37086;DHT22;23001;45.952;12.676;2023-11-19T07:12:24;5.40;99.90
37086;DHT22;23001;45.952;12.676;2023-11-19T07:14:53;5.50;99.90
37086;DHT22;23001;45.952;12.676;2023-11-19T07:17:20;5.60;99.90
37086;DHT22;23001;45.952;12.676;2023-11-19T07:19:46;5.50;99.90
37086;DHT22;23001;45.952;12.676;2023-11-19T07:22:15;5.70;99.90
37086;DHT22;23001;45.952;12.676;2023-11-19T07:24:43;5.80;99.90
37086;DHT22;23001;45.952;12.676;2023-11-19T07:27:09;5.80;99.90
37086;DHT22;23001;45.952;12.676;2023-11-19T07:29:35;5.90;99.90
37086;DHT22;23001;45.952;12.676;2023-11-19T07:32:01;5.90;99.90
37086;DHT22;23001;45.952;12.676;2023-11-19T07:34:30;5.90;99.90
37086;DHT22;23001;45.952;12.676;2023-11-19T07:36:56;6.00;99.90
37086;DHT22;23001;45.952;12.676;2023-11-19T07:39:27;6.00;99.90
37086;DHT22;23001;45.952;12.676;2023-11-19T07:41:53;6.00;99.90
37086;DHT22;23001;45.952;12.676;2023-11-19T07:44:19;6.00;99.90
37086;DHT22;23001;45.952;12.676;2023-11-19T07:46:45;6.10;99.90
37086;DHT22;23001;45.952;12.676;2023-11-19T07:49:10;6.20;99.90
37086;DHT22;23001;45.952;12.676;2023-11-19T07:51:36;6.20;99.90
37086;DHT22;23001;45.952;12.676;2023-11-19T07:54:02;6.30;99.90
37086;DHT22;23001;45.952;12.676;2023-11-19T07:56:27;6.40;99.90
37086;DHT22;23001;45.952;12.676;2023-11-19T07:58:53;6.40;99.90
37086;DHT22;23001;45.952;12.676;2023-11-19T08:01:18;6.50;99.90
37086;DHT22;23001;45.952;12.676;2023-11-19T08:03:44;6.60;99.90
37086;DHT22;23001;45.952;12.676;2023-11-19T08:06:09;6.70;99.90
37086;DHT22;23001;45.952;12.676;2023-11-19T08:08:35;6.80;99.90
37086;DHT22;23001;45.952;12.676;2023-11-19T08:11:03;6.90;99.90
37086;DHT22;23001;45.952;12.676;2023-11-19T08:13:30;7.00;99.90
37086;DHT22;23001;45.952;12.676;2023-11-19T08:15:57;7.10;99.90
37086;DHT22;23001;45.952;12.676;2023-11-19T08:18:23;7.20;99.90
37086;DHT22;23001;45.952;12.676;2023-11-19T08:20:49;7.30;99.90
37086;DHT22;23001;45.952;12.676;2023-11-19T08:23:21;7.40;99.90
37086;DHT22;23001;45.952;12.676;2023-11-19T08:25:49;7.50;99.90
37086;DHT22;23001;45.952;12.676;2023-11-19T08:28:15;7.60;99.90
37086;DHT22;23001;45.952;12.676;2023-11-19T08:30:40;7.70;99.90
37086;DHT22;23001;45.952;12.676;2023-11-19T08:33:06;7.90;99.90
37086;DHT22;23001;45.952;12.676;2023-11-19T08:35:32;7.90;99.90
37086;DHT22;23001;45.952;12.676;2023-11-19T08:37:58;8.00;99.90
37086;DHT22;23001;45.952;12.676;2023-11-19T08:40:24;8.10;99.90
37086;DHT22;23001;45.952;12.676;2023-11-19T08:42:51;8.20;99.90
37086;DHT22;23001;45.952;12.676;2023-11-19T08:45:17;8.30;99.90
37086;DHT22;23001;45.952;12.676;2023-11-19T08:47:42;8.40;99.90
37086;DHT22;23001;45.952;12.676;2023-11-19T08:50:08;8.60;99.90
37086;DHT22;23001;45.952;12.676;2023-11-19T08:52:34;8.80;99.90
37086;DHT22;23001;45.952;12.676;2023-11-19T08:55:00;9.10;99.90
37086;DHT22;23001;45.952;12.676;2023-11-19T08:57:25;9.20;99.90
37086;DHT22;23001;45.952;12.676;2023-11-19T08:59:51;9.30;99.90
37086;DHT22;23001;45.952;12.676;2023-11-19T09:02:16;9.30;99.90
37086;DHT22;23001;45.952;12.676;2023-11-19T09:04:43;9.40;99.90
37086;DHT22;23001;45.952;12.676;2023-11-19T09:07:09;9.50;99.90
37086;DHT22;23001;45.952;12.676;2023-11-19T09:09:35;9.60;99.90
37086;DHT22;23001;45.952;12.676;2023-11-19T09:12:02;9.60;99.90
37086;DHT22;23001;45.952;12.676;2023-11-19T09:14:27;9.60;99.90
37086;DHT22;23001;45.952;12.676;2023-11-19T09:16:53;9.70;99.90
37086;DHT22;23001;45.952;12.676;2023-11-19T09:19:18;9.70;99.90
37086;DHT22;23001;45.952;12.676;2023-11-19T09:21:44;9.70;99.90
37086;DHT22;23001;45.952;12.676;2023-11-19T09:24:09;9.70;99.90
37086;DHT22;23001;45.952;12.676;2023-11-19T09:26:35;9.70;99.90
37086;DHT22;23001;45.952;12.676;2023-11-19T09:29:01;9.80;99.90
37086;DHT22;23001;45.952;12.676;2023-11-19T09:31:27;9.90;99.90
37086;DHT22;23001;45.952;12.676;2023-11-19T09:33:53;9.90;99.90
37086;DHT22;23001;45.952;12.676;2023-11-19T09:36:18;10.00;99.90
37086;DHT22;23001;45.952;12.676;2023-11-19T09:38:44;10.10;99.90
37086;DHT22;23001;45.952;12.676;2023-11-19T09:41:10;10.20;99.90
37086;DHT22;23001;45.952;12.676;2023-11-19T09:43:38;10.30;99.90
37086;DHT22;23001;45.952;12.676;2023-11-19T09:46:05;10.30;99.90
37086;DHT22;23001;45.952;12.676;2023-11-19T09:48:50;10.30;99.90
37086;DHT22;23001;45.952;12.676;2023-11-19T09:51:19;10.40;99.90
37086;DHT22;23001;45.952;12.676;2023-11-19T09:53:45;10.50;99.90
37086;DHT22;23001;45.952;12.676;2023-11-19T09:56:11;10.60;99.90
37086;DHT22;23001;45.952;12.676;2023-11-19T09:58:37;10.70;99.90
37086;DHT22;23001;45.952;12.676;2023-11-19T10:01:03;10.60;99.90
37086;DHT22;23001;45.952;12.676;2023-11-19T10:03:35;10.60;99.90
37086;DHT22;23001;45.952;12.676;2023-11-19T10:06:04;10.40;99.90
37086;DHT22;23001;45.952;12.676;2023-11-19T10:08:29;10.40;99.90
37086;DHT22;23001;45.952;12.676;2023-11-19T10:10:55;10.40;99.90
37086;DHT22;23001;45.952;12.676;2023-11-19T10:13:25;10.50;99.90
37086;DHT22;23001;45.952;12.676;2023-11-19T10:15:51;10.50;99.90
37086;DHT22;23001;45.952;12.676;2023-11-19T10:18:17;10.50;99.90
37086;DHT22;23001;45.952;12.676;2023-11-19T10:20:43;10.40;99.90
37086;DHT22;23001;45.952;12.676;2023-11-19T10:23:09;10.30;99.90
37086;DHT22;23001;45.952;12.676;2023-11-19T10:25:35;10.20;99.90
37086;DHT22;23001;45.952;12.676;2023-11-19T10:28:01;10.20;99.90
37086;DHT22;23001;45.952;12.676;2023-11-19T10:30:29;10.20;99.90
37086;DHT22;23001;45.952;12.676;2023-11-19T10:33:07;10.30;99.90
37086;DHT22;23001;45.952;12.676;2023-11-19T10:35:37;10.50;99.90
37086;DHT22;23001;45.952;12.676;2023-11-19T10:38:15;10.50;99.90
37086;DHT22;23001;45.952;12.676;2023-11-19T10:40:41;10.40;99.90
37086;DHT22;23001;45.952;12.676;2023-11-19T10:43:07;10.50;99.90
37086;DHT22;23001;45.952;12.676;2023-11-19T10:45:36;10.40;99.90
37086;DHT22;23001;45.952;12.676;2023-11-19T10:48:03;10.50;99.90
37086;DHT22;23001;45.952;12.676;2023-11-19T10:50:31;10.60;99.90
37086;DHT22;23001;45.952;12.676;2023-11-19T10:52:57;10.60;99.90
37086;DHT22;23001;45.952;12.676;2023-11-19T10:55:29;10.70;99.90
37086;DHT22;23001;45.952;12.676;2023-11-19T10:57:59;10.70;99.90
37086;DHT22;23001;45.952;12.676;2023-11-19T11:00:26;10.70;99.90
37086;DHT22;23001;45.952;12.676;2023-11-19T11:02:54;10.70;99.90
37086;DHT22;23001;45.952;12.676;2023-11-19T11:05:21;10.80;99.90
37086;DHT22;23001;45.952;12.676;2023-11-19T11:07:47;10.70;99.90
37086;DHT22;23001;45.952;12.676;2023-11-19T11:10:14;10.70;99.90
37086;DHT22;23001;45.952;12.676;2023-11-19T11:12:41;10.80;99.90
37086;DHT22;23001;45.952;12.676;2023-11-19T11:15:10;10.90;99.90
37086;DHT22;23001;45.952;12.676;2023-11-19T11:17:37;10.90;99.90
37086;DHT22;23001;45.952;12.676;2023-11-19T11:20:04;11.00;99.90
37086;DHT22;23001;45.952;12.676;2023-11-19T11:22:32;11.00;99.90
37086;DHT22;23001;45.952;12.676;2023-11-19T11:25:48;11.00;99.90
37086;DHT22;23001;45.952;12.676;2023-11-19T11:27:54;11.00;99.90
37086;DHT22;23001;45.952;12.676;2023-11-19T11:30:31;11.10;99.90
37086;DHT22;23001;45.952;12.676;2023-11-19T11:33:11;11.10;99.90
37086;DHT22;23001;45.952;12.676;2023-11-19T11:35:48;11.20;99.90
37086;DHT22;23001;45.952;12.676;2023-11-19T11:38:15;11.30;99.90
37086;DHT22;23001;45.952;12.676;2023-11-19T11:40:42;11.40;99.90
37086;DHT22;23001;45.952;12.676;2023-11-19T11:43:43;11.40;99.90
37086;DHT22;23001;45.952;12.676;2023-11-19T11:46:00;11.30;99.90
37086;DHT22;23001;45.952;12.676;2023-11-19T11:48:29;11.40;99.90
37086;DHT22;23001;45.952;12.676;2023-11-19T11:50:56;11.40;99.90
37086;DHT22;23001;45.952;12.676;2023-11-19T11:53:25;11.40;99.70
37086;DHT22;23001;45.952;12.676;2023-11-19T11:58:35;11.50;99.90
37086;DHT22;23001;45.952;12.676;2023-11-19T12:01:01;11.50;99.90
37086;DHT22;23001;45.952;12.676;2023-11-19T12:03:27;11.50;99.80
37086;DHT22;23001;45.952;12.676;2023-11-19T12:05:53;11.60;99.30
37086;DHT22;23001;45.952;12.676;2023-11-19T12:08:19;11.70;99.40
37086;DHT22;23001;45.952;12.676;2023-11-19T12:10:48;11.70;99.70
37086;DHT22;23001;45.952;12.676;2023-11-19T12:13:15;11.70;99.60
37086;DHT22;23001;45.952;12.676;2023-11-19T12:16:26;11.60;99.30
37086;DHT22;23001;45.952;12.676;2023-11-19T12:18:32;11.60;99.30
37086;DHT22;23001;45.952;12.676;2023-11-19T12:20:59;11.70;99.90
37086;DHT22;23001;45.952;12.676;2023-11-19T12:23:28;11.80;99.90
37086;DHT22;23001;45.952;12.676;2023-11-19T12:25:54;11.80;99.90
37086;DHT22;23001;45.952;12.676;2023-11-19T12:28:20;11.80;99.20
37086;DHT22;23001;45.952;12.676;2023-11-19T12:30:46;11.80;99.90
37086;DHT22;23001;45.952;12.676;2023-11-19T12:33:13;11.90;99.90
37086;DHT22;23001;45.952;12.676;2023-11-19T12:35:39;11.80;99.90
37086;DHT22;23001;45.952;12.676;2023-11-19T12:38:05;11.70;99.90
37086;DHT22;23001;45.952;12.676;2023-11-19T12:40:31;11.80;99.90
37086;DHT22;23001;45.952;12.676;2023-11-19T12:42:56;11.80;99.90
37086;DHT22;23001;45.952;12.676;2023-11-19T12:45:22;11.90;99.90
37086;DHT22;23001;45.952;12.676;2023-11-19T12:47:49;12.00;99.90
37086;DHT22;23001;45.952;12.676;2023-11-19T12:50:15;11.90;99.90
37086;DHT22;23001;45.952;12.676;2023-11-19T12:52:42;12.00;99.90
37086;DHT22;23001;45.952;12.676;2023-11-19T12:55:27;12.00;99.90
37086;DHT22;23001;45.952;12.676;2023-11-19T12:57:52;12.00;99.20
37086;DHT22;23001;45.952;12.676;2023-11-19T13:00:24;11.90;99.40
37086;DHT22;23001;45.952;12.676;2023-11-19T13:02:53;11.90;99.90
37086;DHT22;23001;45.952;12.676;2023-11-19T13:07:47;11.90;99.90
37086;DHT22;23001;45.952;12.676;2023-11-19T13:10:13;11.90;99.90
37086;DHT22;23001;45.952;12.676;2023-11-19T13:12:39;11.90;99.90
37086;DHT22;23001;45.952;12.676;2023-11-19T13:15:05;12.00;98.90
37086;DHT22;23001;45.952;12.676;2023-11-19T13:17:30;12.00;99.40
37086;DHT22;23001;45.952;12.676;2023-11-19T13:19:56;11.90;99.20
37086;DHT22;23001;45.952;12.676;2023-11-19T13:22:22;11.90;99.90
37086;DHT22;23001;45.952;12.676;2023-11-19T13:24:48;11.90;98.50
37086;DHT22;23001;45.952;12.676;2023-11-19T13:27:13;12.00;99.20
37086;DHT22;23001;45.952;12.676;2023-11-19T13:29:39;12.10;98.90
37086;DHT22;23001;45.952;12.676;2023-11-19T13:32:05;12.00;99.40
37086;DHT22;23001;45.952;12.676;2023-11-19T13:34:31;12.00;99.80
37086;DHT22;23001;45.952;12.676;2023-11-19T13:36:56;12.00;99.40
37086;DHT22;23001;45.952;12.676;2023-11-19T13:39:22;12.00;99.60
37086;DHT22;23001;45.952;12.676;2023-11-19T13:41:49;12.00;99.60
37086;DHT22;23001;45.952;12.676;2023-11-19T13:44:16;12.00;98.70
37086;DHT22;23001;45.952;12.676;2023-11-19T13:46:44;12.10;99.10
37086;DHT22;23001;45.952;12.676;2023-11-19T13:49:09;12.10;98.90
37086;DHT22;23001;45.952;12.676;2023-11-19T13:51:35;12.00;98.10
37086;DHT22;23001;45.952;12.676;2023-11-19T13:54:01;12.00;98.30
37086;DHT22;23001;45.952;12.676;2023-11-19T13:56:26;12.00;99.10
37086;DHT22;23001;45.952;12.676;2023-11-19T13:58:53;12.00;99.60
37086;DHT22;23001;45.952;12.676;2023-11-19T14:01:19;12.00;98.60
37086;DHT22;23001;45.952;12.676;2023-11-19T14:03:44;12.00;98.60
37086;DHT22;23001;45.952;12.676;2023-11-19T14:06:10;12.00;99.40
37086;DHT22;23001;45.952;12.676;2023-11-19T14:08:37;12.00;98.80
37086;DHT22;23001;45.952;12.676;2023-11-19T14:11:02;12.00;99.90
37086;DHT22;23001;45.952;12.676;2023-11-19T14:13:28;11.90;99.50
37086;DHT22;23001;45.952;12.676;2023-11-19T14:15:54;11.90;99.90
37086;DHT22;23001;45.952;12.676;2023-11-19T14:18:19;11.90;99.50
37086;DHT22;23001;45.952;12.676;2023-11-19T14:20:45;11.70;99.90
37086;DHT22;23001;45.952;12.676;2023-11-19T14:23:11;11.60;99.90
37086;DHT22;23001;45.952;12.676;2023-11-19T14:25:36;11.60;99.90
37086;DHT22;23001;45.952;12.676;2023-11-19T14:28:02;11.50;99.90
37086;DHT22;23001;45.952;12.676;2023-11-19T14:30:28;11.50;99.90
37086;DHT22;23001;45.952;12.676;2023-11-19T14:32:53;11.50;99.90
37086;DHT22;23001;45.952;12.676;2023-11-19T14:35:19;11.50;99.90
37086;DHT22;23001;45.952;12.676;2023-11-19T14:37:45;11.40;99.90
37086;DHT22;23001;45.952;12.676;2023-11-19T14:40:11;11.40;99.90
37086;DHT22;23001;45.952;12.676;2023-11-19T14:42:37;11.50;99.90
37086;DHT22;23001;45.952;12.676;2023-11-19T14:45:04;11.30;99.90
37086;DHT22;23001;45.952;12.676;2023-11-19T14:47:30;11.30;99.90
37086;DHT22;23001;45.952;12.676;2023-11-19T14:49:56;11.20;99.90
37086;DHT22;23001;45.952;12.676;2023-11-19T14:52:21;11.10;99.90
37086;DHT22;23001;45.952;12.676;2023-11-19T14:54:47;11.00;99.90
37086;DHT22;23001;45.952;12.676;2023-11-19T14:57:13;11.00;99.90
37086;DHT22;23001;45.952;12.676;2023-11-19T14:59:39;10.90;99.90
37086;DHT22;23001;45.952;12.676;2023-11-19T15:02:05;10.90;99.90
37086;DHT22;23001;45.952;12.676;2023-11-19T15:04:33;10.80;99.90
37086;DHT22;23001;45.952;12.676;2023-11-19T15:07:00;10.60;99.90
37086;DHT22;23001;45.952;12.676;2023-11-19T15:09:25;10.50;99.90
37086;DHT22;23001;45.952;12.676;2023-11-19T15:11:54;10.40;99.90
37086;DHT22;23001;45.952;12.676;2023-11-19T15:14:19;10.30;99.90
37086;DHT22;23001;45.952;12.676;2023-11-19T15:16:45;10.30;99.90
37086;DHT22;23001;45.952;12.676;2023-11-19T15:19:12;10.20;99.90
37086;DHT22;23001;45.952;12.676;2023-11-19T15:21:41;10.10;99.90
37086;DHT22;23001;45.952;12.676;2023-11-19T15:24:07;10.10;99.90
37086;DHT22;23001;45.952;12.676;2023-11-19T15:26:34;10.00;99.90